Time;durP1;ratioP1;P1;durP2;ratioP2;P2;SDS_P1;SDS_P2;PMS_P1;PMS_P2;Temp;Humidity;BMP_temperature;BMP_pressure;BME280_temperature;BME280_humidity;BME280_pressure;Samples;Min_cycle;Max_cycle;Signal;HPM_P1;HPM_P2
2022/07/22 00:02:12;;;;;;;701.67;662.97;;;16.50;99.90;;;;;;5001351;28;20483;-82
2022/07/22 00:04:39;;;;;;;698.33;659.53;;;16.50;99.90;;;;;;5001398;28;20880;-82
2022/07/22 00:07:07;;;;;;;696.43;658.60;;;16.50;99.90;;;;;;5001231;28;20817;-81
2022/07/22 00:09:33;;;;;;;702.10;663.00;;;16.50;99.90;;;;;;5001049;28;20467;-81
2022/07/22 00:12:00;;;;;;;727.50;686.03;;;16.50;99.90;;;;;;5001550;28;20884;-82
2022/07/22 00:14:27;;;;;;;731.57;690.20;;;16.50;99.90;;;;;;5000589;28;20837;-81
2022/07/22 00:16:54;;;;;;;735.00;692.80;;;16.50;99.90;;;;;;5000925;28;20463;-81
2022/07/22 00:19:21;;;;;;;740.70;698.77;;;16.60;99.90;;;;;;5000186;28;20535;-81
2022/07/22 00:21:48;;;;;;;768.20;722.20;;;16.50;99.90;;;;;;5000804;28;20513;-83
2022/07/22 00:24:16;;;;;;;744.57;700.77;;;16.50;99.90;;;;;;5000565;28;20467;-82
2022/07/22 00:26:43;;;;;;;757.60;712.37;;;16.50;99.90;;;;;;5000349;28;20464;-81
2022/07/22 00:29:10;;;;;;;775.20;728.90;;;16.50;99.90;;;;;;5000654;28;20478;-81
2022/07/22 00:31:36;;;;;;;777.93;730.70;;;16.50;99.90;;;;;;5001135;28;20462;-84
2022/07/22 00:34:04;;;;;;;799.17;750.17;;;16.50;99.90;;;;;;5000291;28;20467;-81
2022/07/22 00:36:31;;;;;;;799.37;748.70;;;16.40;99.90;;;;;;5000839;28;20459;-82
2022/07/22 00:38:58;;;;;;;810.63;758.47;;;16.40;99.90;;;;;;5000229;28;20458;-82
2022/07/22 00:41:26;;;;;;;816.40;765.33;;;16.40;99.90;;;;;;5000501;28;20481;-82
2022/07/22 00:43:55;;;;;;;810.63;759.23;;;16.40;99.90;;;;;;5000330;28;20455;-82
2022/07/22 00:46:22;;;;;;;817.63;765.83;;;16.40;99.90;;;;;;5000119;28;20460;-82
2022/07/22 00:48:49;;;;;;;798.63;748.10;;;16.40;99.90;;;;;;5000396;28;20466;-82
2022/07/22 00:51:16;;;;;;;798.40;748.50;;;16.40;99.90;;;;;;5000226;28;20455;-82
2022/07/22 00:53:43;;;;;;;812.27;760.57;;;16.30;99.90;;;;;;4999732;28;20461;-81
2022/07/22 00:56:11;;;;;;;808.37;756.70;;;16.40;99.90;;;;;;5000001;28;20456;-81
2022/07/22 00:58:39;;;;;;;821.53;769.27;;;16.30;99.90;;;;;;4999966;28;20456;-81
2022/07/22 01:01:06;;;;;;;823.90;771.00;;;16.40;99.90;;;;;;5000036;28;20469;-81
2022/07/22 01:03:33;;;;;;;825.37;772.80;;;16.40;99.90;;;;;;4999424;28;20482;-80
2022/07/22 01:06:00;;;;;;;820.70;768.57;;;16.40;99.90;;;;;;4999734;28;20456;-82
2022/07/22 01:08:27;;;;;;;812.70;760.90;;;16.40;99.90;;;;;;5000481;28;20459;-82
2022/07/22 01:10:54;;;;;;;811.27;759.70;;;16.30;99.90;;;;;;5000176;28;20456;-82
2022/07/22 01:13:20;;;;;;;821.10;768.33;;;16.30;99.90;;;;;;4999627;28;20853;-82
2022/07/22 01:15:48;;;;;;;830.97;777.40;;;16.40;99.90;;;;;;4999447;28;20467;-82
2022/07/22 01:18:15;;;;;;;820.63;768.60;;;16.30;99.90;;;;;;5000280;28;20478;-82
2022/07/22 01:20:43;;;;;;;818.67;767.07;;;16.40;99.90;;;;;;4999634;28;20495;-82
2022/07/22 01:23:10;;;;;;;821.43;769.47;;;16.40;99.90;;;;;;4999885;28;20858;-82
2022/07/22 01:25:37;;;;;;;817.20;765.90;;;16.30;99.90;;;;;;4998948;28;20489;-82
2022/07/22 01:28:04;;;;;;;807.13;757.03;;;16.30;99.90;;;;;;5000322;28;20451;-81
2022/07/22 01:30:31;;;;;;;795.00;745.50;;;16.30;99.90;;;;;;4999630;28;20454;-82
2022/07/22 01:32:57;;;;;;;797.43;748.70;;;16.30;99.90;;;;;;4999216;28;20474;-82
2022/07/22 01:35:24;;;;;;;801.50;752.27;;;16.30;99.90;;;;;;4998710;28;20455;-82
2022/07/22 01:37:52;;;;;;;802.57;753.03;;;16.30;99.90;;;;;;4998902;28;20459;-81
2022/07/22 01:40:19;;;;;;;798.47;748.67;;;16.30;99.90;;;;;;4998674;28;20460;-82
2022/07/22 01:42:46;;;;;;;804.33;754.07;;;16.30;99.90;;;;;;4998880;28;20493;-82
2022/07/22 01:45:13;;;;;;;812.17;761.67;;;16.30;99.90;;;;;;4998536;28;20456;-82
2022/07/22 01:47:39;;;;;;;810.73;760.30;;;16.20;99.90;;;;;;4999339;28;20467;-82
2022/07/22 01:50:09;;;;;;;823.13;770.53;;;16.30;99.90;;;;;;4999383;28;20455;-81
2022/07/22 01:52:36;;;;;;;829.80;777.20;;;16.20;99.90;;;;;;4999366;28;20478;-82
2022/07/22 01:55:05;;;;;;;832.33;779.07;;;16.30;99.90;;;;;;4999294;28;20456;-82
2022/07/22 01:57:31;;;;;;;825.20;773.20;;;16.30;99.90;;;;;;4999083;28;20462;-82
2022/07/22 01:59:58;;;;;;;832.27;779.40;;;16.20;99.90;;;;;;4998787;28;20833;-82
2022/07/22 02:02:25;;;;;;;846.37;791.87;;;16.20;99.90;;;;;;4999112;28;20483;-82
2022/07/22 02:04:52;;;;;;;847.80;791.73;;;16.20;99.90;;;;;;4999201;28;20465;-83
2022/07/22 02:07:18;;;;;;;844.57;789.87;;;16.20;99.90;;;;;;4998526;28;20998;-80
2022/07/22 02:09:45;;;;;;;839.70;783.80;;;16.20;99.90;;;;;;4999264;28;20455;-82
2022/07/22 02:12:13;;;;;;;847.83;791.37;;;16.20;99.90;;;;;;4999179;28;20475;-82
2022/07/22 02:14:40;;;;;;;845.97;788.80;;;16.30;99.90;;;;;;4998363;28;20454;-81
2022/07/22 02:17:06;;;;;;;845.17;788.37;;;16.20;99.90;;;;;;4999139;28;20469;-82
2022/07/22 02:19:33;;;;;;;846.27;789.23;;;16.20;99.90;;;;;;4998877;28;20455;-82
2022/07/22 02:22:00;;;;;;;851.47;795.93;;;16.30;99.90;;;;;;4998472;28;20534;-81
2022/07/22 02:24:27;;;;;;;851.63;795.80;;;16.10;99.90;;;;;;4998694;28;20456;-82
2022/07/22 02:26:53;;;;;;;846.40;791.20;;;16.30;99.90;;;;;;4998078;28;20458;-82
2022/07/22 02:29:22;;;;;;;846.90;790.90;;;16.30;99.90;;;;;;4998309;28;20467;-82
2022/07/22 02:31:49;;;;;;;857.60;799.97;;;16.20;99.90;;;;;;4997689;28;21011;-81
2022/07/22 02:34:15;;;;;;;847.93;790.40;;;16.20;99.90;;;;;;4997969;28;20934;-81
2022/07/22 02:36:42;;;;;;;843.50;789.13;;;16.30;99.90;;;;;;4998252;28;20459;-82
2022/07/22 02:39:09;;;;;;;835.27;780.77;;;16.20;99.90;;;;;;4997985;28;20458;-83
2022/07/22 02:41:36;;;;;;;848.93;792.43;;;16.30;99.90;;;;;;4997926;28;20453;-82
2022/07/22 02:44:03;;;;;;;847.67;792.07;;;16.30;99.90;;;;;;4997730;28;20470;-81
2022/07/22 02:46:31;;;;;;;835.00;782.80;;;16.30;99.90;;;;;;4998141;28;20451;-82
2022/07/22 02:48:58;;;;;;;832.10;780.70;;;16.20;99.90;;;;;;4998845;28;20463;-82
2022/07/22 02:51:26;;;;;;;816.53;766.73;;;16.30;99.90;;;;;;4998112;28;20819;-82
2022/07/22 02:53:52;;;;;;;841.17;788.80;;;16.30;99.90;;;;;;4998216;28;20450;-81
2022/07/22 02:56:19;;;;;;;842.47;789.37;;;16.20;99.90;;;;;;4998587;28;20460;-82
2022/07/22 02:58:47;;;;;;;849.47;795.93;;;16.20;99.90;;;;;;4998042;28;20458;-83
2022/07/22 03:01:14;;;;;;;833.47;781.57;;;16.10;99.90;;;;;;4997899;28;21025;-82
2022/07/22 03:03:42;;;;;;;842.60;791.00;;;16.10;99.90;;;;;;4997648;28;20486;-82
2022/07/22 03:06:09;;;;;;;846.07;791.77;;;16.00;99.90;;;;;;4997760;28;20454;-82
2022/07/22 03:08:36;;;;;;;850.47;795.37;;;16.10;99.90;;;;;;4998448;28;20467;-82
2022/07/22 03:11:03;;;;;;;846.43;793.37;;;16.20;99.90;;;;;;4998634;28;20455;-82
2022/07/22 03:13:30;;;;;;;851.10;796.00;;;16.00;99.90;;;;;;4997436;28;20480;-82
2022/07/22 03:15:57;;;;;;;841.97;788.53;;;15.90;99.90;;;;;;4997520;28;20554;-82
2022/07/22 03:18:24;;;;;;;844.80;790.27;;;16.00;99.90;;;;;;4998709;28;20454;-81
2022/07/22 03:20:52;;;;;;;837.17;786.00;;;15.90;99.90;;;;;;4998405;28;20461;-82
2022/07/22 03:23:19;;;;;;;827.57;778.77;;;15.90;99.90;;;;;;4998098;28;20486;-82
2022/07/22 03:25:45;;;;;;;830.07;780.30;;;15.90;99.90;;;;;;4997917;28;20492;-82
2022/07/22 03:28:12;;;;;;;841.73;790.77;;;15.90;99.90;;;;;;4997708;28;20816;-83
2022/07/22 03:30:39;;;;;;;842.57;790.90;;;15.80;99.90;;;;;;4997926;28;20455;-82
2022/07/22 03:33:06;;;;;;;825.07;777.27;;;16.00;99.90;;;;;;4998290;28;20474;-81
2022/07/22 03:35:32;;;;;;;794.37;751.13;;;15.90;99.90;;;;;;4997462;28;20841;-82
2022/07/22 03:38:01;;;;;;;795.53;751.57;;;15.80;99.90;;;;;;4998190;28;20474;-83
2022/07/22 03:40:28;;;;;;;809.40;764.07;;;15.90;99.90;;;;;;4997541;28;20462;-83
2022/07/22 03:42:55;;;;;;;790.17;747.73;;;15.90;99.90;;;;;;4998059;28;20482;-82
2022/07/22 03:45:22;;;;;;;791.10;747.43;;;15.90;99.90;;;;;;4997616;28;20482;-82
2022/07/22 03:47:48;;;;;;;802.73;757.77;;;15.90;99.90;;;;;;4998134;28;20470;-81
2022/07/22 03:50:15;;;;;;;774.77;733.73;;;16.00;99.90;;;;;;4998101;28;20465;-81
2022/07/22 03:52:42;;;;;;;779.60;737.97;;;16.00;99.90;;;;;;4997819;28;20474;-81
2022/07/22 03:55:10;;;;;;;809.13;764.13;;;15.90;99.90;;;;;;5000508;28;20455;-82
2022/07/22 03:57:37;;;;;;;799.10;754.13;;;15.90;99.90;;;;;;5000835;28;20773;-82
2022/07/22 04:00:05;;;;;;;813.53;767.07;;;16.00;99.90;;;;;;5001227;28;20455;-81
2022/07/22 04:02:32;;;;;;;820.93;772.07;;;16.00;99.90;;;;;;5001107;28;20990;-82
2022/07/22 04:04:59;;;;;;;821.53;774.13;;;16.00;99.90;;;;;;5000566;28;20460;-80
2022/07/22 04:07:25;;;;;;;841.40;790.63;;;16.00;99.90;;;;;;5001624;28;20467;-82
2022/07/22 04:10:04;;;;;;;834.00;782.60;;;16.00;99.90;;;;;;5000303;28;20464;-81
2022/07/22 04:12:33;;;;;;;825.20;775.23;;;16.00;99.90;;;;;;5001428;28;20545;-82
2022/07/22 04:15:00;;;;;;;840.00;788.30;;;16.00;99.90;;;;;;5000047;28;20458;-82
2022/07/22 04:17:26;;;;;;;812.97;765.20;;;16.00;99.90;;;;;;5001212;28;20458;-82
2022/07/22 04:19:53;;;;;;;774.03;732.07;;;16.10;99.90;;;;;;5001540;28;20463;-82
2022/07/22 04:22:20;;;;;;;786.23;741.27;;;16.00;99.90;;;;;;5001107;28;20483;-82
2022/07/22 04:24:47;;;;;;;772.53;728.87;;;16.10;99.90;;;;;;5000390;28;20470;-82
2022/07/22 04:27:13;;;;;;;766.60;725.27;;;16.00;99.90;;;;;;5001306;28;20458;-82
2022/07/22 04:29:41;;;;;;;785.37;740.27;;;16.00;99.90;;;;;;5001078;28;20461;-82
2022/07/22 04:32:08;;;;;;;769.70;725.30;;;16.10;99.90;;;;;;5000745;28;20477;-82
2022/07/22 04:34:35;;;;;;;779.33;734.33;;;16.10;99.90;;;;;;5000816;28;20480;-82
2022/07/22 04:37:02;;;;;;;795.07;749.53;;;16.10;99.90;;;;;;5000467;28;20451;-82
2022/07/22 04:39:28;;;;;;;780.37;736.17;;;16.10;99.90;;;;;;4999895;28;20462;-82
2022/07/22 04:41:55;;;;;;;770.57;727.27;;;16.20;99.90;;;;;;5000212;28;20574;-81
2022/07/22 04:44:24;;;;;;;755.80;715.90;;;16.20;99.90;;;;;;4999567;28;20503;-82
2022/07/22 04:46:53;;;;;;;750.73;710.63;;;16.10;99.90;;;;;;5000492;28;20456;-82
2022/07/22 04:49:19;;;;;;;773.40;731.10;;;16.20;99.90;;;;;;5000806;28;20479;-82
2022/07/22 04:51:46;;;;;;;780.47;736.07;;;16.20;99.90;;;;;;5000244;28;20991;-82
2022/07/22 04:54:13;;;;;;;752.53;711.27;;;16.40;99.90;;;;;;5000130;28;20979;-82
2022/07/22 04:56:40;;;;;;;741.07;702.17;;;16.30;99.90;;;;;;5000382;28;20485;-82
2022/07/22 04:59:07;;;;;;;778.73;734.87;;;16.30;99.90;;;;;;5000953;28;20461;-82
2022/07/22 05:01:34;;;;;;;748.93;708.70;;;16.20;99.90;;;;;;5000014;28;20461;-82
2022/07/22 05:04:02;;;;;;;755.37;714.60;;;16.40;99.90;;;;;;5000023;28;20487;-82
2022/07/22 05:06:29;;;;;;;761.03;719.53;;;16.30;99.90;;;;;;4999538;28;20549;-82
2022/07/22 05:08:56;;;;;;;723.30;686.13;;;16.30;99.90;;;;;;5000099;28;20827;-82
2022/07/22 05:11:23;;;;;;;744.60;704.30;;;16.30;99.90;;;;;;5000824;28;20464;-81
2022/07/22 05:13:49;;;;;;;710.33;672.33;;;16.40;99.90;;;;;;5000377;28;20458;-82
2022/07/22 05:16:16;;;;;;;703.97;669.60;;;16.40;99.90;;;;;;5000256;28;20463;-82
2022/07/22 05:18:43;;;;;;;671.40;638.97;;;16.30;99.90;;;;;;4999635;28;20467;-83
2022/07/22 05:21:11;;;;;;;681.20;648.30;;;16.30;99.90;;;;;;4998972;28;20453;-81
2022/07/22 05:23:38;;;;;;;705.97;670.90;;;16.30;99.90;;;;;;4997505;28;20519;-81
2022/07/22 05:26:05;;;;;;;747.13;707.03;;;16.40;99.90;;;;;;4998501;28;20521;-81
2022/07/22 05:28:32;;;;;;;728.77;689.43;;;16.40;99.90;;;;;;4997892;28;20451;-82
2022/07/22 05:30:59;;;;;;;723.40;684.63;;;16.50;99.90;;;;;;4997664;28;20578;-81
2022/07/22 05:33:26;;;;;;;733.33;694.07;;;16.40;99.90;;;;;;4998483;28;20478;-81
2022/07/22 05:35:53;;;;;;;726.23;686.43;;;16.60;99.90;;;;;;4997744;28;20527;-81
2022/07/22 05:38:21;;;;;;;726.03;685.83;;;16.60;99.90;;;;;;4998237;28;20466;-81
2022/07/22 05:40:48;;;;;;;669.80;636.20;;;16.60;99.90;;;;;;4998268;28;20463;-82
2022/07/22 05:43:14;;;;;;;594.23;567.57;;;16.80;99.90;;;;;;4998293;28;20485;-82
2022/07/22 05:45:41;;;;;;;583.10;557.13;;;16.60;99.90;;;;;;4998241;28;20983;-82
2022/07/22 05:48:08;;;;;;;554.43;529.17;;;16.60;99.90;;;;;;4997534;28;20462;-81
2022/07/22 05:50:35;;;;;;;419.60;403.20;;;16.70;99.90;;;;;;4998810;28;20834;-81
2022/07/22 05:53:02;;;;;;;392.17;377.67;;;16.60;99.90;;;;;;4997233;28;20482;-82
2022/07/22 05:55:30;;;;;;;418.23;402.03;;;16.70;99.90;;;;;;4997357;28;20451;-82
2022/07/22 05:57:57;;;;;;;425.70;409.30;;;16.80;99.90;;;;;;4996942;28;20463;-81
2022/07/22 06:00:24;;;;;;;356.17;343.67;;;16.70;99.90;;;;;;4997183;28;20461;-81
2022/07/22 06:02:51;;;;;;;379.43;365.33;;;16.80;99.90;;;;;;4998274;28;20870;-82
2022/07/22 06:05:18;;;;;;;311.00;300.07;;;16.90;99.90;;;;;;4997393;28;20459;-81
2022/07/22 06:07:44;;;;;;;305.83;295.10;;;17.00;99.90;;;;;;4999078;28;20452;-82
2022/07/22 06:10:11;;;;;;;292.10;282.33;;;16.90;99.90;;;;;;4998520;28;20958;-82
2022/07/22 06:12:39;;;;;;;301.97;291.70;;;17.00;99.90;;;;;;4999088;28;20476;-82
2022/07/22 06:15:07;;;;;;;250.07;241.23;;;16.90;99.90;;;;;;4997832;28;20821;-82
2022/07/22 06:17:34;;;;;;;230.07;222.53;;;17.00;99.90;;;;;;4998430;28;20460;-82
2022/07/22 06:20:00;;;;;;;134.37;129.27;;;17.20;99.90;;;;;;5000017;28;20464;-83
2022/07/22 06:22:27;;;;;;;178.43;172.37;;;17.00;99.90;;;;;;5000047;28;20494;-83
2022/07/22 06:24:54;;;;;;;155.60;149.87;;;17.10;99.90;;;;;;4981845;28;20492;-81
2022/07/22 06:27:21;;;;;;;105.57;101.47;;;17.40;99.90;;;;;;4979902;28;20458;-83
2022/07/22 06:29:49;;;;;;;120.53;116.30;;;17.50;99.90;;;;;;4980309;28;20461;-83
2022/07/22 06:32:15;;;;;;;70.57;67.20;;;17.70;99.90;;;;;;4980301;28;20482;-82
2022/07/22 06:34:42;;;;;;;66.77;63.10;;;17.80;99.90;;;;;;4980433;28;20455;-83
2022/07/22 06:37:09;;;;;;;41.30;38.97;;;18.00;99.90;;;;;;4980553;28;20462;-83
2022/07/22 06:39:36;;;;;;;53.20;50.13;;;18.10;99.90;;;;;;4980579;28;20537;-84
2022/07/22 06:42:03;;;;;;;29.47;27.37;;;18.20;99.90;;;;;;4980012;28;20473;-83
2022/07/22 06:44:30;;;;;;;30.33;28.20;;;18.20;99.90;;;;;;4980308;28;20563;-83
2022/07/22 06:46:58;;;;;;;26.23;24.43;;;18.30;99.90;;;;;;4980632;28;20840;-83
2022/07/22 06:49:29;;;;;;;26.23;24.03;;;18.30;99.90;;;;;;4980286;28;20457;-82
2022/07/22 06:51:56;;;;;;;14.57;13.03;;;18.40;99.90;;;;;;4980083;28;20917;-83
2022/07/22 06:54:23;;;;;;;13.53;11.60;;;18.30;99.90;;;;;;4980052;28;20863;-83
2022/07/22 06:56:50;;;;;;;16.90;9.20;;;18.50;99.90;;;;;;4980650;28;20453;-82
2022/07/22 06:59:17;;;;;;;14.90;7.03;;;18.80;99.90;;;;;;4980059;28;20554;-83
2022/07/22 07:01:44;;;;;;;13.63;6.97;;;18.80;99.90;;;;;;4978881;28;20519;-83
2022/07/22 07:04:12;;;;;;;14.30;7.37;;;18.80;99.90;;;;;;4979388;28;20483;-82
2022/07/22 07:06:39;;;;;;;11.97;7.70;;;18.80;99.90;;;;;;4980028;28;20961;-82
2022/07/22 07:09:08;;;;;;;11.60;6.17;;;18.70;99.90;;;;;;4979594;28;20492;-82
2022/07/22 07:11:41;;;;;;;12.20;7.20;;;18.80;99.90;;;;;;4979723;28;20484;-82
2022/07/22 07:14:08;;;;;;;13.20;8.27;;;18.70;99.90;;;;;;4979191;28;20461;-83
2022/07/22 07:16:35;;;;;;;11.90;7.00;;;18.70;99.90;;;;;;4979857;28;21027;-83
2022/07/22 07:19:02;;;;;;;15.93;5.97;;;18.90;99.90;;;;;;4978141;28;20654;-82
2022/07/22 07:21:33;;;;;;;8.37;5.00;;;18.70;99.20;;;;;;4979275;28;20464;-83
2022/07/22 07:24:08;;;;;;;9.97;5.03;;;18.70;99.60;;;;;;4978384;28;20572;-82
2022/07/22 07:26:47;;;;;;;12.93;5.53;;;18.60;99.90;;;;;;4977473;28;20458;-84
2022/07/22 07:29:14;;;;;;;20.17;6.53;;;18.60;99.90;;;;;;4978920;28;20465;-83
2022/07/22 07:31:41;;;;;;;15.97;6.90;;;18.50;99.70;;;;;;4981446;28;20479;-79
2022/07/22 07:34:07;;;;;;;12.07;5.00;;;18.80;99.90;;;;;;4980663;28;20456;-82
2022/07/22 07:36:36;;;;;;;179.70;167.77;;;17.10;99.90;;;;;;4983793;28;20483;-81
2022/07/22 07:39:03;;;;;;;400.10;378.43;;;24.50;99.90;;;;;;4985191;28;20461;-81
2022/07/22 07:41:30;;;;;;;485.63;458.17;;;25.50;99.90;;;;;;4984229;28;20457;-85
2022/07/22 07:43:56;;;;;;;654.53;613.83;;;24.80;99.90;;;;;;4985007;28;20569;-84
2022/07/22 07:46:23;;;;;;;750.43;702.87;;;22.60;99.90;;;;;;4986081;28;20469;-82
2022/07/22 07:48:50;;;;;;;849.23;794.77;;;21.00;99.90;;;;;;4983303;28;20456;-84
2022/07/22 07:51:17;;;;;;;917.50;856.83;;;22.20;99.90;;;;;;4982454;28;20827;-83
2022/07/22 07:54:00;;;;;;;930.43;863.40;;;21.80;99.90;;;;;;4984358;28;20471;-82
2022/07/22 07:56:27;;;;;;;962.17;889.30;;;18.60;99.90;;;;;;4983012;28;20894;-84
2022/07/22 07:58:54;;;;;;;957.33;883.53;;;21.00;99.90;;;;;;4979319;28;20457;-85
2022/07/22 08:01:21;;;;;;;968.57;894.37;;;21.20;99.90;;;;;;4978362;28;20465;-84
2022/07/22 08:03:47;;;;;;;965.53;890.37;;;19.60;99.90;;;;;;4980963;28;20482;-81
2022/07/22 08:06:14;;;;;;;1039.05;953.05;;;19.90;99.90;;;;;;4979898;28;20458;-80
2022/07/22 08:08:41;;;;;;;1009.63;925.47;;;17.90;99.90;;;;;;4981223;28;20579;-83
2022/07/22 08:11:27;;;;;;;1040.73;953.07;;;18.60;99.90;;;;;;4981036;28;20459;-82
2022/07/22 08:13:54;;;;;;;1058.53;969.83;;;17.90;99.90;;;;;;4980247;28;20838;-82
2022/07/22 08:16:21;;;;;;;456.70;426.60;;;18.40;99.90;;;;;;4980470;28;20959;-82
2022/07/22 08:18:47;;;;;;;140.20;130.63;;;17.60;99.90;;;;;;4981096;28;20459;-82
2022/07/22 08:21:14;;;;;;;413.13;387.73;;;17.40;99.90;;;;;;4981940;28;20451;-82
2022/07/22 08:23:41;;;;;;;387.90;363.23;;;18.10;99.90;;;;;;4981874;28;21072;-82
2022/07/22 08:26:08;;;;;;;503.90;468.00;;;18.10;99.90;;;;;;4981886;28;20447;-82
2022/07/22 08:28:36;;;;;;;494.17;460.10;;;18.50;99.90;;;;;;4981167;28;20463;-81
2022/07/22 08:31:02;;;;;;;422.23;393.83;;;18.20;99.90;;;;;;4980981;28;20462;-82
2022/07/22 08:33:29;;;;;;;590.63;547.70;;;18.40;99.90;;;;;;4981556;28;20481;-82
2022/07/22 08:35:56;;;;;;;403.77;374.13;;;18.40;99.90;;;;;;4981419;28;20464;-81
2022/07/22 08:38:23;;;;;;;379.20;350.53;;;18.70;99.90;;;;;;4981720;28;20465;-82
2022/07/22 08:40:49;;;;;;;385.53;356.13;;;18.20;99.90;;;;;;4980809;28;20484;-82
2022/07/22 08:43:16;;;;;;;363.17;335.50;;;18.20;99.90;;;;;;4981466;28;20475;-81
2022/07/22 08:45:44;;;;;;;390.67;359.53;;;18.00;99.90;;;;;;4980829;28;20506;-83
2022/07/22 08:48:11;;;;;;;526.47;487.07;;;18.10;99.90;;;;;;4981756;28;20570;-83
2022/07/22 08:50:38;;;;;;;382.80;356.20;;;18.30;99.90;;;;;;4981565;28;20481;-82
2022/07/22 08:53:11;;;;;;;371.23;344.67;;;18.00;99.90;;;;;;4981879;28;20501;-82
2022/07/22 08:55:41;;;;;;;366.57;340.13;;;18.10;99.90;;;;;;4981138;28;20508;-82
2022/07/22 08:58:08;;;;;;;358.43;332.73;;;18.10;99.90;;;;;;4981313;28;20443;-82
2022/07/22 09:00:35;;;;;;;356.67;331.20;;;18.30;99.90;;;;;;4980899;28;20465;-82
2022/07/22 09:03:17;;;;;;;372.73;347.57;;;18.20;99.90;;;;;;4980693;28;20477;-83
2022/07/22 09:05:44;;;;;;;367.33;342.10;;;18.00;99.90;;;;;;4980929;28;20484;-83
2022/07/22 09:08:11;;;;;;;366.20;341.03;;;18.10;99.90;;;;;;4980464;28;20464;-82
2022/07/22 09:10:38;;;;;;;363.00;338.07;;;18.10;99.90;;;;;;4981553;28;20463;-82
2022/07/22 09:13:06;;;;;;;344.30;319.50;;;18.20;99.90;;;;;;4981460;28;20476;-82
2022/07/22 09:15:35;;;;;;;351.83;327.63;;;18.40;99.90;;;;;;4980501;28;20451;-83
2022/07/22 09:18:05;;;;;;;344.70;322.57;;;18.70;99.90;;;;;;4981458;28;20470;-82
2022/07/22 09:20:32;;;;;;;348.30;325.80;;;19.00;99.90;;;;;;4980985;28;20463;-82
2022/07/22 09:22:59;;;;;;;351.60;329.50;;;19.20;99.90;;;;;;4980476;28;20479;-81
2022/07/22 09:25:30;;;;;;;346.73;325.23;;;19.30;99.90;;;;;;4981704;28;20488;-83
2022/07/22 09:28:38;;;;;;;350.70;329.30;;;19.50;99.90;;;;;;4977724;28;20868;-85
2022/07/22 09:31:05;;;;;;;333.93;313.47;;;19.70;99.80;;;;;;4977629;28;20492;-84
2022/07/22 09:33:49;;;;;;;347.50;326.13;;;19.80;97.10;;;;;;4978990;28;20490;-84
2022/07/22 09:36:16;;;;;;;343.47;322.47;;;20.20;96.30;;;;;;4978337;28;20547;-84
2022/07/22 09:38:43;;;;;;;256.87;241.33;;;20.10;93.30;;;;;;4977375;28;20546;-79
2022/07/22 09:43:49;;;;;;;293.53;276.53;;;20.80;92.40;;;;;;5062910;23;20481;-81
2022/07/22 09:46:17;;;;;;;299.67;282.37;;;20.60;91.50;;;;;;5041257;28;20469;-83
2022/07/22 09:48:44;;;;;;;307.87;290.27;;;20.60;91.90;;;;;;5040790;28;20448;-83
2022/07/22 09:51:22;;;;;;;174.80;162.67;;;20.70;88.90;;;;;;5040544;28;20443;-82
2022/07/22 09:53:50;;;;;;;200.83;187.73;;;21.00;88.80;;;;;;5020411;28;20472;-82
2022/07/22 09:56:18;;;;;;;244.03;229.57;;;21.00;87.00;;;;;;5020878;28;20536;-84
2022/07/22 09:58:44;;;;;;;177.43;165.43;;;21.10;84.60;;;;;;5021089;28;20971;-84
2022/07/22 10:01:12;;;;;;;187.60;175.43;;;21.40;87.80;;;;;;5020539;28;20460;-84
2022/07/22 10:03:43;;;;;;;170.80;159.30;;;21.40;81.10;;;;;;5017946;28;20477;-80
2022/07/22 10:06:10;;;;;;;166.57;155.17;;;21.40;84.70;;;;;;5017042;28;20491;-82
2022/07/22 10:08:39;;;;;;;168.63;157.23;;;21.30;82.50;;;;;;5018620;28;20461;-81
2022/07/22 10:11:08;;;;;;;164.63;153.27;;;21.30;83.10;;;;;;5017412;28;20547;-82
2022/07/22 10:13:37;;;;;;;172.37;161.03;;;21.30;79.40;;;;;;5018300;28;20484;-81
2022/07/22 10:16:04;;;;;;;167.03;155.83;;;21.70;84.10;;;;;;5017708;28;20454;-81
2022/07/22 10:18:31;;;;;;;165.90;155.10;;;22.20;78.30;;;;;;5018155;28;20459;-81
2022/07/22 10:21:02;;;;;;;147.43;137.50;;;22.50;76.40;;;;;;5017462;28;20447;-83
2022/07/22 10:23:29;;;;;;;146.20;136.50;;;22.30;69.50;;;;;;5017854;28;20475;-82
2022/07/22 10:25:59;;;;;;;153.13;142.83;;;22.90;69.00;;;;;;5017444;28;20510;-82
2022/07/22 10:28:27;;;;;;;172.53;161.53;;;22.60;67.00;;;;;;5018321;28;20459;-81
2022/07/22 10:30:55;;;;;;;150.90;140.90;;;23.00;67.40;;;;;;5017835;28;20480;-81
2022/07/22 10:33:22;;;;;;;152.30;142.20;;;23.20;64.80;;;;;;5017568;28;20475;-82
2022/07/22 10:35:59;;;;;;;174.80;163.30;;;23.40;65.60;;;;;;5017954;28;20522;-82
2022/07/22 10:38:27;;;;;;;151.63;141.53;;;23.40;65.00;;;;;;5017259;28;20459;-81
2022/07/22 10:40:55;;;;;;;182.03;170.50;;;23.80;67.30;;;;;;5017924;28;20961;-82
2022/07/22 10:43:25;;;;;;;176.40;165.40;;;24.00;62.30;;;;;;5017464;28;20495;-82
2022/07/22 10:45:54;;;;;;;157.70;147.70;;;24.40;60.50;;;;;;5017218;28;20488;-82
2022/07/22 10:48:24;;;;;;;135.17;126.47;;;24.40;57.10;;;;;;5017719;28;20840;-82
2022/07/22 10:51:10;;;;;;;122.40;114.60;;;24.10;56.80;;;;;;5017786;28;20456;-81
2022/07/22 10:53:52;;;;;;;105.87;98.80;;;24.60;54.20;;;;;;5017754;28;20492;-85
2022/07/22 10:56:23;;;;;;;92.13;85.83;;;25.30;53.50;;;;;;5017747;28;20445;-82
2022/07/22 10:59:19;;;;;;;83.03;77.43;;;26.10;51.20;;;;;;5018103;28;20484;-82
2022/07/22 11:01:48;;;;;;;87.70;81.80;;;26.50;45.90;;;;;;5011995;28;20997;-82
2022/07/22 11:04:17;;;;;;;100.07;93.83;;;25.30;44.50;;;;;;5016534;28;20445;-83
2022/07/22 11:06:46;;;;;;;97.83;92.13;;;25.00;45.30;;;;;;5017626;28;20483;-82
2022/07/22 11:09:14;;;;;;;90.77;85.47;;;24.50;50.70;;;;;;5018139;28;20457;-82
2022/07/22 11:11:43;;;;;;;84.83;80.23;;;24.70;50.40;;;;;;5016592;28;20548;-82
2022/07/22 11:14:16;;;;;;;94.20;89.20;;;25.10;47.60;;;;;;5017297;28;20453;-83
2022/07/22 11:16:45;;;;;;;88.60;84.20;;;24.90;48.90;;;;;;5017685;28;20453;-82
2022/07/22 11:19:12;;;;;;;84.43;80.43;;;24.90;45.10;;;;;;5017068;28;20458;-83
2022/07/22 11:21:39;;;;;;;78.07;74.50;;;24.70;48.00;;;;;;5017449;28;20445;-82
2022/07/22 11:24:09;;;;;;;72.27;69.03;;;25.10;46.90;;;;;;5016664;28;20460;-83
2022/07/22 11:26:40;;;;;;;65.40;62.63;;;24.50;42.80;;;;;;5017318;28;20485;-82
2022/07/22 11:29:07;;;;;;;62.53;59.93;;;24.10;43.40;;;;;;5017311;28;20464;-82
2022/07/22 11:31:36;;;;;;;54.63;52.43;;;24.50;44.00;;;;;;5017651;28;20455;-82
2022/07/22 11:34:08;;;;;;;51.30;49.30;;;25.50;42.00;;;;;;5017054;28;20460;-82
2022/07/22 11:36:36;;;;;;;45.90;44.10;;;26.00;43.50;;;;;;5017894;28;20476;-82
2022/07/22 11:39:03;;;;;;;40.60;39.00;;;26.90;34.60;;;;;;5017156;28;20453;-82
2022/07/22 11:48:53;;;;;;;20.93;20.03;;;26.00;33.80;;;;;;4859342;29;20448;-85
2022/07/22 11:51:45;;;;;;;17.17;16.37;;;26.50;34.30;;;;;;4941533;29;21016;-82
2022/07/22 11:54:13;;;;;;;14.03;13.23;;;27.60;32.50;;;;;;4955955;29;20455;-84
2022/07/22 11:56:41;;;;;;;10.23;9.63;;;28.10;25.00;;;;;;4953102;29;20526;-85
2022/07/22 11:59:09;;;;;;;7.70;7.20;;;28.60;22.60;;;;;;4979596;28;20484;-85
2022/07/22 12:01:37;;;;;;;8.10;7.50;;;27.80;26.20;;;;;;5012298;28;20452;-86
2022/07/22 12:04:06;;;;;;;6.43;5.97;;;27.00;25.30;;;;;;5011938;28;20457;-87
2022/07/22 12:07:06;;;;;;;7.33;6.83;;;27.40;25.70;;;;;;5013199;28;20931;-85
2022/07/22 12:09:50;;;;;;;7.70;7.20;;;29.10;21.00;;;;;;5012777;28;20543;-86
2022/07/22 12:12:16;;;;;;;8.00;7.30;;;29.30;18.10;;;;;;5013411;28;20469;-86
2022/07/22 12:14:47;;;;;;;5.83;5.43;;;29.90;16.70;;;;;;5011914;28;20457;-86
2022/07/22 12:17:15;;;;;;;5.57;5.17;;;31.10;12.00;;;;;;5015361;28;20448;-86
2022/07/22 12:19:42;;;;;;;6.60;5.87;;;30.40;11.90;;;;;;5015410;28;20434;-86
2022/07/22 12:22:28;;;;;;;5.07;4.67;;;28.80;14.50;;;;;;5015371;28;20477;-86
2022/07/22 12:25:00;;;;;;;4.80;4.40;;;28.20;16.80;;;;;;5018178;28;20531;-80
2022/07/22 12:27:26;;;;;;;5.70;5.20;;;27.60;18.40;;;;;;5020230;28;20518;-82
2022/07/22 12:29:53;;;;;;;5.17;4.70;;;28.00;19.10;;;;;;5020465;28;20453;-81